sensor_id;sensor_type;location;lat;lon;timestamp;P1;durP1;ratioP1;P2;durP2;ratioP2
46463;SDS011;32161;48.148;-1.554;2022-11-20T00:01:04;25.98;;;11.93;;
46463;SDS011;32161;48.148;-1.554;2022-11-20T00:03:33;22.40;;;12.73;;
46463;SDS011;32161;48.148;-1.554;2022-11-20T00:06:01;20.42;;;11.70;;
46463;SDS011;32161;48.148;-1.554;2022-11-20T00:08:30;17.85;;;10.95;;
46463;SDS011;32161;48.148;-1.554;2022-11-20T00:11:01;15.63;;;11.93;;
46463;SDS011;32161;48.148;-1.554;2022-11-20T00:13:30;16.52;;;9.55;;
46463;SDS011;32161;48.148;-1.554;2022-11-20T00:15:58;15.02;;;10.27;;
46463;SDS011;32161;48.148;-1.554;2022-11-20T00:18:30;19.60;;;10.75;;
46463;SDS011;32161;48.148;-1.554;2022-11-20T00:21:01;15.05;;;9.27;;
46463;SDS011;32161;48.148;-1.554;2022-11-20T00:26:01;15.75;;;9.35;;
46463;SDS011;32161;48.148;-1.554;2022-11-20T00:28:30;16.00;;;10.55;;
46463;SDS011;32161;48.148;-1.554;2022-11-20T00:31:01;11.82;;;10.32;;
46463;SDS011;32161;48.148;-1.554;2022-11-20T00:33:31;23.50;;;12.05;;
46463;SDS011;32161;48.148;-1.554;2022-11-20T00:36:00;22.65;;;10.68;;
46463;SDS011;32161;48.148;-1.554;2022-11-20T00:38:29;13.82;;;9.93;;
46463;SDS011;32161;48.148;-1.554;2022-11-20T00:40:57;18.00;;;9.50;;
46463;SDS011;32161;48.148;-1.554;2022-11-20T00:43:25;15.32;;;9.98;;
46463;SDS011;32161;48.148;-1.554;2022-11-20T00:45:56;12.65;;;8.05;;
46463;SDS011;32161;48.148;-1.554;2022-11-20T00:48:24;15.40;;;8.70;;
46463;SDS011;32161;48.148;-1.554;2022-11-20T00:50:54;12.95;;;8.00;;
46463;SDS011;32161;48.148;-1.554;2022-11-20T00:53:22;13.45;;;8.30;;
46463;SDS011;32161;48.148;-1.554;2022-11-20T00:55:54;17.13;;;8.15;;
46463;SDS011;32161;48.148;-1.554;2022-11-20T00:58:23;10.15;;;7.60;;
46463;SDS011;32161;48.148;-1.554;2022-11-20T01:00:59;12.57;;;7.97;;
46463;SDS011;32161;48.148;-1.554;2022-11-20T01:03:27;10.63;;;6.85;;
46463;SDS011;32161;48.148;-1.554;2022-11-20T01:06:03;9.50;;;7.03;;
46463;SDS011;32161;48.148;-1.554;2022-11-20T01:08:34;11.80;;;7.65;;
46463;SDS011;32161;48.148;-1.554;2022-11-20T01:11:03;13.50;;;7.13;;
46463;SDS011;32161;48.148;-1.554;2022-11-20T01:13:34;12.55;;;7.45;;
46463;SDS011;32161;48.148;-1.554;2022-11-20T01:16:07;10.88;;;7.05;;
46463;SDS011;32161;48.148;-1.554;2022-11-20T01:18:37;14.60;;;6.80;;
46463;SDS011;32161;48.148;-1.554;2022-11-20T01:21:09;11.82;;;5.78;;
46463;SDS011;32161;48.148;-1.554;2022-11-20T01:23:39;10.88;;;5.97;;
46463;SDS011;32161;48.148;-1.554;2022-11-20T01:26:09;10.32;;;5.80;;
46463;SDS011;32161;48.148;-1.554;2022-11-20T01:28:39;10.02;;;6.15;;
46463;SDS011;32161;48.148;-1.554;2022-11-20T01:31:11;7.70;;;5.50;;
46463;SDS011;32161;48.148;-1.554;2022-11-20T01:33:41;10.93;;;5.38;;
46463;SDS011;32161;48.148;-1.554;2022-11-20T01:36:12;11.80;;;5.65;;
46463;SDS011;32161;48.148;-1.554;2022-11-20T01:38:40;5.40;;;4.90;;
46463;SDS011;32161;48.148;-1.554;2022-11-20T01:41:09;6.38;;;4.18;;
46463;SDS011;32161;48.148;-1.554;2022-11-20T01:43:59;8.13;;;4.50;;
46463;SDS011;32161;48.148;-1.554;2022-11-20T01:46:28;9.70;;;4.25;;
46463;SDS011;32161;48.148;-1.554;2022-11-20T01:48:57;9.52;;;4.75;;
46463;SDS011;32161;48.148;-1.554;2022-11-20T01:51:31;7.25;;;4.55;;
46463;SDS011;32161;48.148;-1.554;2022-11-20T01:54:05;5.95;;;3.80;;
46463;SDS011;32161;48.148;-1.554;2022-11-20T01:56:38;8.45;;;3.78;;
46463;SDS011;32161;48.148;-1.554;2022-11-20T01:59:09;7.18;;;3.67;;
46463;SDS011;32161;48.148;-1.554;2022-11-20T02:01:40;7.40;;;3.30;;
46463;SDS011;32161;48.148;-1.554;2022-11-20T02:04:07;7.38;;;3.33;;
46463;SDS011;32161;48.148;-1.554;2022-11-20T02:06:39;7.43;;;3.20;;
46463;SDS011;32161;48.148;-1.554;2022-11-20T02:09:12;9.30;;;3.45;;
46463;SDS011;32161;48.148;-1.554;2022-11-20T02:11:40;8.82;;;3.38;;
46463;SDS011;32161;48.148;-1.554;2022-11-20T02:14:08;7.63;;;2.70;;
46463;SDS011;32161;48.148;-1.554;2022-11-20T02:16:36;5.43;;;3.13;;
46463;SDS011;32161;48.148;-1.554;2022-11-20T02:19:13;6.15;;;2.70;;
46463;SDS011;32161;48.148;-1.554;2022-11-20T02:21:52;8.18;;;2.67;;
46463;SDS011;32161;48.148;-1.554;2022-11-20T02:24:29;4.32;;;2.63;;
46463;SDS011;32161;48.148;-1.554;2022-11-20T02:26:59;9.38;;;2.90;;
46463;SDS011;32161;48.148;-1.554;2022-11-20T02:29:30;9.70;;;3.28;;
46463;SDS011;32161;48.148;-1.554;2022-11-20T02:32:04;10.05;;;3.22;;
46463;SDS011;32161;48.148;-1.554;2022-11-20T02:34:31;4.68;;;2.75;;
46463;SDS011;32161;48.148;-1.554;2022-11-20T02:36:59;5.03;;;2.63;;
46463;SDS011;32161;48.148;-1.554;2022-11-20T02:39:27;8.38;;;2.53;;
46463;SDS011;32161;48.148;-1.554;2022-11-20T02:41:57;6.22;;;3.20;;
46463;SDS011;32161;48.148;-1.554;2022-11-20T02:44:27;3.95;;;2.95;;
46463;SDS011;32161;48.148;-1.554;2022-11-20T02:46:56;4.18;;;2.67;;
46463;SDS011;32161;48.148;-1.554;2022-11-20T02:49:24;9.35;;;2.92;;
46463;SDS011;32161;48.148;-1.554;2022-11-20T02:51:52;8.07;;;2.78;;
46463;SDS011;32161;48.148;-1.554;2022-11-20T02:54:19;7.55;;;2.70;;
46463;SDS011;32161;48.148;-1.554;2022-11-20T02:56:48;5.78;;;2.47;;
46463;SDS011;32161;48.148;-1.554;2022-11-20T02:59:16;11.27;;;3.88;;
46463;SDS011;32161;48.148;-1.554;2022-11-20T03:01:43;12.02;;;3.65;;
46463;SDS011;32161;48.148;-1.554;2022-11-20T03:04:11;10.45;;;3.10;;
46463;SDS011;32161;48.148;-1.554;2022-11-20T03:06:38;6.30;;;3.25;;
46463;SDS011;32161;48.148;-1.554;2022-11-20T03:09:06;3.88;;;2.90;;
46463;SDS011;32161;48.148;-1.554;2022-11-20T03:11:34;5.03;;;2.50;;
46463;SDS011;32161;48.148;-1.554;2022-11-20T03:14:03;10.30;;;5.00;;
46463;SDS011;32161;48.148;-1.554;2022-11-20T03:16:31;7.30;;;3.13;;
46463;SDS011;32161;48.148;-1.554;2022-11-20T03:18:59;3.97;;;2.80;;
46463;SDS011;32161;48.148;-1.554;2022-11-20T03:21:27;4.80;;;2.72;;
46463;SDS011;32161;48.148;-1.554;2022-11-20T03:23:54;5.45;;;2.70;;
46463;SDS011;32161;48.148;-1.554;2022-11-20T03:26:23;6.15;;;3.00;;
46463;SDS011;32161;48.148;-1.554;2022-11-20T03:28:53;9.38;;;3.22;;
46463;SDS011;32161;48.148;-1.554;2022-11-20T03:31:24;9.95;;;3.10;;
46463;SDS011;32161;48.148;-1.554;2022-11-20T03:33:55;6.90;;;3.55;;
46463;SDS011;32161;48.148;-1.554;2022-11-20T03:36:24;9.20;;;3.10;;
46463;SDS011;32161;48.148;-1.554;2022-11-20T03:38:53;11.43;;;3.53;;
46463;SDS011;32161;48.148;-1.554;2022-11-20T03:41:22;10.20;;;3.72;;
46463;SDS011;32161;48.148;-1.554;2022-11-20T03:43:53;4.57;;;3.38;;
46463;SDS011;32161;48.148;-1.554;2022-11-20T03:46:24;14.15;;;3.60;;
46463;SDS011;32161;48.148;-1.554;2022-11-20T03:48:52;5.78;;;3.63;;
46463;SDS011;32161;48.148;-1.554;2022-11-20T03:51:21;6.90;;;3.42;;
46463;SDS011;32161;48.148;-1.554;2022-11-20T03:53:51;6.55;;;3.95;;
46463;SDS011;32161;48.148;-1.554;2022-11-20T03:56:22;6.40;;;3.83;;
46463;SDS011;32161;48.148;-1.554;2022-11-20T03:58:51;7.40;;;3.72;;
46463;SDS011;32161;48.148;-1.554;2022-11-20T04:01:20;10.02;;;3.70;;
46463;SDS011;32161;48.148;-1.554;2022-11-20T04:03:51;6.78;;;3.38;;
46463;SDS011;32161;48.148;-1.554;2022-11-20T04:06:21;10.60;;;3.78;;
46463;SDS011;32161;48.148;-1.554;2022-11-20T04:08:51;11.57;;;3.80;;
46463;SDS011;32161;48.148;-1.554;2022-11-20T04:11:21;17.92;;;3.80;;
46463;SDS011;32161;48.148;-1.554;2022-11-20T04:13:50;4.53;;;3.45;;
46463;SDS011;32161;48.148;-1.554;2022-11-20T04:16:20;11.80;;;3.83;;
46463;SDS011;32161;48.148;-1.554;2022-11-20T04:18:52;11.13;;;3.45;;
46463;SDS011;32161;48.148;-1.554;2022-11-20T04:21:21;3.78;;;3.40;;
46463;SDS011;32161;48.148;-1.554;2022-11-20T04:23:49;7.30;;;3.45;;
46463;SDS011;32161;48.148;-1.554;2022-11-20T04:26:19;9.90;;;3.88;;
46463;SDS011;32161;48.148;-1.554;2022-11-20T04:28:48;6.22;;;3.05;;
46463;SDS011;32161;48.148;-1.554;2022-11-20T04:31:16;6.47;;;3.35;;
46463;SDS011;32161;48.148;-1.554;2022-11-20T04:33:46;6.25;;;3.35;;
46463;SDS011;32161;48.148;-1.554;2022-11-20T04:36:15;8.05;;;3.90;;
46463;SDS011;32161;48.148;-1.554;2022-11-20T04:38:45;7.72;;;3.85;;
46463;SDS011;32161;48.148;-1.554;2022-11-20T04:41:17;8.13;;;4.00;;
46463;SDS011;32161;48.148;-1.554;2022-11-20T04:43:46;5.25;;;3.88;;
46463;SDS011;32161;48.148;-1.554;2022-11-20T04:46:15;6.47;;;3.88;;
46463;SDS011;32161;48.148;-1.554;2022-11-20T04:48:43;6.55;;;4.88;;
46463;SDS011;32161;48.148;-1.554;2022-11-20T04:51:11;9.55;;;5.15;;
46463;SDS011;32161;48.148;-1.554;2022-11-20T04:53:40;7.28;;;4.82;;
46463;SDS011;32161;48.148;-1.554;2022-11-20T04:56:08;7.32;;;5.40;;
46463;SDS011;32161;48.148;-1.554;2022-11-20T04:58:38;12.85;;;5.18;;
46463;SDS011;32161;48.148;-1.554;2022-11-20T05:01:07;5.53;;;4.93;;
46463;SDS011;32161;48.148;-1.554;2022-11-20T05:03:38;5.60;;;5.03;;
46463;SDS011;32161;48.148;-1.554;2022-11-20T05:06:06;8.90;;;4.68;;
46463;SDS011;32161;48.148;-1.554;2022-11-20T05:08:35;8.32;;;4.45;;
46463;SDS011;32161;48.148;-1.554;2022-11-20T05:11:05;5.32;;;4.03;;
46463;SDS011;32161;48.148;-1.554;2022-11-20T05:13:35;5.75;;;4.50;;
46463;SDS011;32161;48.148;-1.554;2022-11-20T05:16:03;4.90;;;4.30;;
46463;SDS011;32161;48.148;-1.554;2022-11-20T05:18:33;6.50;;;4.38;;
46463;SDS011;32161;48.148;-1.554;2022-11-20T05:21:01;8.30;;;4.40;;
46463;SDS011;32161;48.148;-1.554;2022-11-20T05:23:29;8.32;;;4.57;;
46463;SDS011;32161;48.148;-1.554;2022-11-20T05:25:58;8.63;;;4.35;;
46463;SDS011;32161;48.148;-1.554;2022-11-20T05:28:28;5.80;;;3.88;;
46463;SDS011;32161;48.148;-1.554;2022-11-20T05:31:03;6.60;;;4.22;;
46463;SDS011;32161;48.148;-1.554;2022-11-20T05:33:32;11.32;;;4.78;;
46463;SDS011;32161;48.148;-1.554;2022-11-20T05:36:01;6.78;;;4.28;;
46463;SDS011;32161;48.148;-1.554;2022-11-20T05:38:29;6.75;;;3.90;;
46463;SDS011;32161;48.148;-1.554;2022-11-20T05:41:02;4.97;;;3.60;;
46463;SDS011;32161;48.148;-1.554;2022-11-20T05:43:33;8.57;;;4.13;;
46463;SDS011;32161;48.148;-1.554;2022-11-20T05:46:02;6.13;;;3.90;;
46463;SDS011;32161;48.148;-1.554;2022-11-20T05:48:30;7.55;;;3.65;;
46463;SDS011;32161;48.148;-1.554;2022-11-20T05:51:00;3.90;;;3.60;;
46463;SDS011;32161;48.148;-1.554;2022-11-20T05:53:31;5.07;;;3.35;;
46463;SDS011;32161;48.148;-1.554;2022-11-20T05:55:59;7.95;;;3.70;;
46463;SDS011;32161;48.148;-1.554;2022-11-20T05:58:29;7.38;;;3.47;;
46463;SDS011;32161;48.148;-1.554;2022-11-20T06:01:04;6.28;;;3.85;;
46463;SDS011;32161;48.148;-1.554;2022-11-20T06:03:34;7.70;;;3.85;;
46463;SDS011;32161;48.148;-1.554;2022-11-20T06:06:01;7.15;;;3.67;;
46463;SDS011;32161;48.148;-1.554;2022-11-20T06:08:31;6.40;;;4.03;;
46463;SDS011;32161;48.148;-1.554;2022-11-20T06:11:02;5.28;;;4.05;;
46463;SDS011;32161;48.148;-1.554;2022-11-20T06:13:31;3.90;;;3.50;;
46463;SDS011;32161;48.148;-1.554;2022-11-20T06:15:59;4.60;;;2.80;;
46463;SDS011;32161;48.148;-1.554;2022-11-20T06:18:28;2.88;;;1.92;;
46463;SDS011;32161;48.148;-1.554;2022-11-20T06:21:00;1.70;;;1.65;;
46463;SDS011;32161;48.148;-1.554;2022-11-20T06:23:30;1.65;;;1.58;;
46463;SDS011;32161;48.148;-1.554;2022-11-20T06:26:00;1.35;;;1.35;;
46463;SDS011;32161;48.148;-1.554;2022-11-20T06:28:29;1.30;;;1.20;;
46463;SDS011;32161;48.148;-1.554;2022-11-20T06:30:58;1.38;;;1.27;;
46463;SDS011;32161;48.148;-1.554;2022-11-20T06:33:27;0.95;;;0.95;;
46463;SDS011;32161;48.148;-1.554;2022-11-20T06:35:56;2.25;;;1.20;;
46463;SDS011;32161;48.148;-1.554;2022-11-20T06:38:24;1.52;;;1.45;;
46463;SDS011;32161;48.148;-1.554;2022-11-20T06:40:52;2.42;;;1.10;;
46463;SDS011;32161;48.148;-1.554;2022-11-20T06:43:21;2.10;;;2.00;;
46463;SDS011;32161;48.148;-1.554;2022-11-20T06:45:51;1.15;;;1.15;;
46463;SDS011;32161;48.148;-1.554;2022-11-20T06:48:19;1.15;;;1.10;;
46463;SDS011;32161;48.148;-1.554;2022-11-20T06:50:48;2.38;;;1.00;;
46463;SDS011;32161;48.148;-1.554;2022-11-20T06:53:16;0.88;;;0.88;;
46463;SDS011;32161;48.148;-1.554;2022-11-20T06:55:44;1.10;;;1.10;;
46463;SDS011;32161;48.148;-1.554;2022-11-20T06:58:13;1.15;;;1.08;;
46463;SDS011;32161;48.148;-1.554;2022-11-20T07:00:41;1.40;;;1.30;;
46463;SDS011;32161;48.148;-1.554;2022-11-20T07:03:11;1.42;;;1.33;;
46463;SDS011;32161;48.148;-1.554;2022-11-20T07:05:40;1.50;;;1.50;;
46463;SDS011;32161;48.148;-1.554;2022-11-20T07:08:10;2.22;;;1.90;;
46463;SDS011;32161;48.148;-1.554;2022-11-20T07:10:38;2.08;;;1.98;;
46463;SDS011;32161;48.148;-1.554;2022-11-20T07:13:05;2.10;;;1.90;;
46463;SDS011;32161;48.148;-1.554;2022-11-20T07:15:33;1.88;;;1.77;;
46463;SDS011;32161;48.148;-1.554;2022-11-20T07:18:00;1.60;;;1.50;;
46463;SDS011;32161;48.148;-1.554;2022-11-20T07:20:28;1.38;;;1.35;;
46463;SDS011;32161;48.148;-1.554;2022-11-20T07:22:57;4.53;;;1.50;;
46463;SDS011;32161;48.148;-1.554;2022-11-20T07:25:27;1.42;;;1.33;;
46463;SDS011;32161;48.148;-1.554;2022-11-20T07:27:56;1.30;;;1.20;;
46463;SDS011;32161;48.148;-1.554;2022-11-20T07:30:24;2.30;;;1.55;;
46463;SDS011;32161;48.148;-1.554;2022-11-20T07:32:52;2.97;;;1.60;;
46463;SDS011;32161;48.148;-1.554;2022-11-20T07:35:22;2.78;;;2.05;;
46463;SDS011;32161;48.148;-1.554;2022-11-20T07:37:50;5.95;;;2.22;;
46463;SDS011;32161;48.148;-1.554;2022-11-20T07:40:17;2.60;;;2.08;;
46463;SDS011;32161;48.148;-1.554;2022-11-20T07:42:50;1.85;;;1.75;;
46463;SDS011;32161;48.148;-1.554;2022-11-20T07:45:20;2.38;;;1.80;;
46463;SDS011;32161;48.148;-1.554;2022-11-20T07:47:49;3.13;;;2.25;;
46463;SDS011;32161;48.148;-1.554;2022-11-20T07:50:17;1.60;;;1.60;;
46463;SDS011;32161;48.148;-1.554;2022-11-20T07:52:46;1.83;;;1.60;;
46463;SDS011;32161;48.148;-1.554;2022-11-20T07:55:13;2.05;;;1.88;;
46463;SDS011;32161;48.148;-1.554;2022-11-20T07:57:41;1.52;;;1.42;;
46463;SDS011;32161;48.148;-1.554;2022-11-20T08:00:11;1.70;;;1.70;;
46463;SDS011;32161;48.148;-1.554;2022-11-20T08:02:40;1.65;;;1.60;;
46463;SDS011;32161;48.148;-1.554;2022-11-20T08:05:08;2.05;;;1.90;;
46463;SDS011;32161;48.148;-1.554;2022-11-20T08:07:36;5.22;;;1.92;;
46463;SDS011;32161;48.148;-1.554;2022-11-20T08:10:05;2.00;;;1.90;;
46463;SDS011;32161;48.148;-1.554;2022-11-20T08:12:35;2.33;;;2.20;;
46463;SDS011;32161;48.148;-1.554;2022-11-20T08:15:29;9.88;;;1.50;;
46463;SDS011;32161;48.148;-1.554;2022-11-20T08:18:01;1.45;;;1.45;;
46463;SDS011;32161;48.148;-1.554;2022-11-20T08:20:30;14.32;;;1.40;;
46463;SDS011;32161;48.148;-1.554;2022-11-20T08:22:58;41.00;;;1.48;;
46463;SDS011;32161;48.148;-1.554;2022-11-20T08:25:27;41.35;;;1.70;;
46463;SDS011;32161;48.148;-1.554;2022-11-20T08:27:56;19.33;;;0.90;;
46463;SDS011;32161;48.148;-1.554;2022-11-20T08:30:25;26.63;;;1.00;;
46463;SDS011;32161;48.148;-1.554;2022-11-20T08:32:54;32.53;;;1.70;;
46463;SDS011;32161;48.148;-1.554;2022-11-20T08:35:32;3.95;;;0.98;;
46463;SDS011;32161;48.148;-1.554;2022-11-20T08:38:00;0.70;;;0.70;;
46463;SDS011;32161;48.148;-1.554;2022-11-20T08:40:28;1.17;;;1.17;;
46463;SDS011;32161;48.148;-1.554;2022-11-20T08:42:56;2.00;;;1.90;;
46463;SDS011;32161;48.148;-1.554;2022-11-20T08:45:24;2.10;;;2.00;;
46463;SDS011;32161;48.148;-1.554;2022-11-20T08:47:52;3.00;;;1.77;;
46463;SDS011;32161;48.148;-1.554;2022-11-20T08:50:26;3.67;;;3.20;;
46463;SDS011;32161;48.148;-1.554;2022-11-20T08:52:54;5.20;;;4.68;;
46463;SDS011;32161;48.148;-1.554;2022-11-20T08:55:21;4.90;;;3.92;;
46463;SDS011;32161;48.148;-1.554;2022-11-20T08:57:49;4.88;;;2.65;;
46463;SDS011;32161;48.148;-1.554;2022-11-20T09:00:17;9.70;;;1.60;;
46463;SDS011;32161;48.148;-1.554;2022-11-20T09:02:45;13.75;;;1.58;;
46463;SDS011;32161;48.148;-1.554;2022-11-20T09:05:14;2.75;;;2.30;;
46463;SDS011;32161;48.148;-1.554;2022-11-20T09:07:41;5.43;;;2.50;;
46463;SDS011;32161;48.148;-1.554;2022-11-20T09:10:09;5.35;;;2.65;;
46463;SDS011;32161;48.148;-1.554;2022-11-20T09:12:37;11.98;;;3.22;;
46463;SDS011;32161;48.148;-1.554;2022-11-20T09:15:04;9.88;;;2.97;;
46463;SDS011;32161;48.148;-1.554;2022-11-20T09:17:33;8.00;;;2.33;;
46463;SDS011;32161;48.148;-1.554;2022-11-20T09:20:01;8.45;;;2.30;;
46463;SDS011;32161;48.148;-1.554;2022-11-20T09:22:30;15.93;;;2.92;;
46463;SDS011;32161;48.148;-1.554;2022-11-20T09:24:58;30.70;;;3.88;;
46463;SDS011;32161;48.148;-1.554;2022-11-20T09:27:25;22.10;;;3.88;;
46463;SDS011;32161;48.148;-1.554;2022-11-20T09:29:53;16.90;;;3.35;;
46463;SDS011;32161;48.148;-1.554;2022-11-20T09:32:20;16.45;;;3.33;;
46463;SDS011;32161;48.148;-1.554;2022-11-20T09:34:48;29.33;;;3.75;;
46463;SDS011;32161;48.148;-1.554;2022-11-20T09:37:16;26.15;;;5.25;;
46463;SDS011;32161;48.148;-1.554;2022-11-20T09:39:45;30.15;;;3.70;;
46463;SDS011;32161;48.148;-1.554;2022-11-20T09:42:15;30.25;;;4.75;;
46463;SDS011;32161;48.148;-1.554;2022-11-20T09:45:04;30.05;;;4.10;;
46463;SDS011;32161;48.148;-1.554;2022-11-20T09:47:50;33.28;;;4.05;;
46463;SDS011;32161;48.148;-1.554;2022-11-20T09:50:31;31.27;;;4.93;;
46463;SDS011;32161;48.148;-1.554;2022-11-20T09:53:11;38.80;;;4.85;;
46463;SDS011;32161;48.148;-1.554;2022-11-20T09:55:48;30.50;;;4.82;;
46463;SDS011;32161;48.148;-1.554;2022-11-20T09:58:20;30.95;;;5.50;;
46463;SDS011;32161;48.148;-1.554;2022-11-20T10:00:57;28.65;;;4.45;;
46463;SDS011;32161;48.148;-1.554;2022-11-20T10:03:36;35.08;;;5.72;;
46463;SDS011;32161;48.148;-1.554;2022-11-20T10:06:12;40.25;;;6.63;;
46463;SDS011;32161;48.148;-1.554;2022-11-20T10:08:45;36.45;;;4.40;;
46463;SDS011;32161;48.148;-1.554;2022-11-20T10:11:24;38.38;;;5.05;;
46463;SDS011;32161;48.148;-1.554;2022-11-20T10:14:06;23.50;;;4.35;;
46463;SDS011;32161;48.148;-1.554;2022-11-20T10:16:47;41.28;;;6.50;;
46463;SDS011;32161;48.148;-1.554;2022-11-20T10:19:30;38.88;;;6.28;;
46463;SDS011;32161;48.148;-1.554;2022-11-20T10:22:17;31.92;;;4.80;;
46463;SDS011;32161;48.148;-1.554;2022-11-20T10:25:02;41.63;;;5.55;;
46463;SDS011;32161;48.148;-1.554;2022-11-20T10:27:52;32.30;;;6.05;;
46463;SDS011;32161;48.148;-1.554;2022-11-20T10:30:41;32.97;;;4.97;;
46463;SDS011;32161;48.148;-1.554;2022-11-20T10:33:13;48.60;;;6.43;;
46463;SDS011;32161;48.148;-1.554;2022-11-20T10:35:48;48.45;;;6.20;;
46463;SDS011;32161;48.148;-1.554;2022-11-20T10:38:21;28.10;;;5.55;;
46463;SDS011;32161;48.148;-1.554;2022-11-20T10:40:57;48.05;;;6.88;;
46463;SDS011;32161;48.148;-1.554;2022-11-20T10:43:43;34.08;;;5.85;;
46463;SDS011;32161;48.148;-1.554;2022-11-20T10:46:14;38.63;;;6.82;;
46463;SDS011;32161;48.148;-1.554;2022-11-20T10:48:45;42.28;;;6.20;;
46463;SDS011;32161;48.148;-1.554;2022-11-20T10:51:15;31.83;;;5.15;;
46463;SDS011;32161;48.148;-1.554;2022-11-20T10:53:58;40.47;;;6.30;;
46463;SDS011;32161;48.148;-1.554;2022-11-20T10:56:40;38.22;;;5.65;;
46463;SDS011;32161;48.148;-1.554;2022-11-20T10:59:22;38.47;;;6.40;;
46463;SDS011;32161;48.148;-1.554;2022-11-20T11:02:15;29.25;;;5.25;;
46463;SDS011;32161;48.148;-1.554;2022-11-20T11:04:45;32.28;;;6.50;;
46463;SDS011;32161;48.148;-1.554;2022-11-20T11:07:16;24.92;;;5.32;;
46463;SDS011;32161;48.148;-1.554;2022-11-20T11:09:50;36.13;;;5.75;;
46463;SDS011;32161;48.148;-1.554;2022-11-20T11:12:20;32.30;;;5.70;;
46463;SDS011;32161;48.148;-1.554;2022-11-20T11:14:52;27.73;;;5.03;;
46463;SDS011;32161;48.148;-1.554;2022-11-20T11:17:25;32.38;;;5.60;;
46463;SDS011;32161;48.148;-1.554;2022-11-20T11:20:02;35.38;;;5.53;;
46463;SDS011;32161;48.148;-1.554;2022-11-20T11:22:42;31.42;;;5.32;;
46463;SDS011;32161;48.148;-1.554;2022-11-20T11:25:20;25.60;;;5.60;;
46463;SDS011;32161;48.148;-1.554;2022-11-20T11:27:53;29.88;;;4.70;;
46463;SDS011;32161;48.148;-1.554;2022-11-20T11:30:25;23.17;;;4.03;;
46463;SDS011;32161;48.148;-1.554;2022-11-20T11:33:03;41.03;;;5.30;;
46463;SDS011;32161;48.148;-1.554;2022-11-20T11:35:33;27.55;;;4.72;;
46463;SDS011;32161;48.148;-1.554;2022-11-20T11:38:12;25.13;;;4.63;;
46463;SDS011;32161;48.148;-1.554;2022-11-20T11:40:43;33.80;;;6.22;;
46463;SDS011;32161;48.148;-1.554;2022-11-20T11:43:19;29.95;;;5.38;;
46463;SDS011;32161;48.148;-1.554;2022-11-20T11:46:20;28.58;;;4.75;;
46463;SDS011;32161;48.148;-1.554;2022-11-20T11:48:57;34.60;;;5.40;;
46463;SDS011;32161;48.148;-1.554;2022-11-20T11:51:28;27.63;;;4.18;;
46463;SDS011;32161;48.148;-1.554;2022-11-20T11:54:05;39.15;;;5.82;;
46463;SDS011;32161;48.148;-1.554;2022-11-20T11:56:43;26.95;;;4.13;;
46463;SDS011;32161;48.148;-1.554;2022-11-20T11:59:12;30.02;;;4.80;;
46463;SDS011;32161;48.148;-1.554;2022-11-20T12:01:51;37.25;;;4.38;;
46463;SDS011;32161;48.148;-1.554;2022-11-20T12:04:36;27.77;;;5.30;;
46463;SDS011;32161;48.148;-1.554;2022-11-20T12:07:12;24.55;;;4.93;;
46463;SDS011;32161;48.148;-1.554;2022-11-20T12:09:50;24.23;;;3.83;;
46463;SDS011;32161;48.148;-1.554;2022-11-20T12:12:22;23.48;;;4.43;;
46463;SDS011;32161;48.148;-1.554;2022-11-20T12:14:57;20.23;;;4.00;;
46463;SDS011;32161;48.148;-1.554;2022-11-20T12:17:27;21.15;;;4.70;;
46463;SDS011;32161;48.148;-1.554;2022-11-20T12:19:54;26.63;;;4.00;;
46463;SDS011;32161;48.148;-1.554;2022-11-20T12:22:25;15.75;;;2.95;;
46463;SDS011;32161;48.148;-1.554;2022-11-20T12:25:07;25.40;;;5.18;;
46463;SDS011;32161;48.148;-1.554;2022-11-20T12:30:40;19.10;;;3.63;;
46463;SDS011;32161;48.148;-1.554;2022-11-20T12:33:37;28.58;;;4.35;;
46463;SDS011;32161;48.148;-1.554;2022-11-20T12:36:19;19.77;;;3.30;;
46463;SDS011;32161;48.148;-1.554;2022-11-20T12:39:11;26.95;;;4.32;;
46463;SDS011;32161;48.148;-1.554;2022-11-20T12:42:16;21.48;;;4.47;;
46463;SDS011;32161;48.148;-1.554;2022-11-20T12:45:46;19.13;;;3.17;;
46463;SDS011;32161;48.148;-1.554;2022-11-20T12:51:41;28.88;;;4.38;;
46463;SDS011;32161;48.148;-1.554;2022-11-20T12:57:53;26.70;;;4.65;;
46463;SDS011;32161;48.148;-1.554;2022-11-20T13:00:28;22.58;;;3.90;;
46463;SDS011;32161;48.148;-1.554;2022-11-20T13:03:01;19.33;;;3.78;;
46463;SDS011;32161;48.148;-1.554;2022-11-20T13:05:51;26.90;;;5.40;;
46463;SDS011;32161;48.148;-1.554;2022-11-20T13:08:29;26.20;;;4.38;;
46463;SDS011;32161;48.148;-1.554;2022-11-20T13:11:01;29.05;;;5.57;;
46463;SDS011;32161;48.148;-1.554;2022-11-20T13:13:42;20.00;;;3.72;;
46463;SDS011;32161;48.148;-1.554;2022-11-20T13:16:38;22.00;;;3.63;;
46463;SDS011;32161;48.148;-1.554;2022-11-20T13:19:16;20.58;;;3.95;;
46463;SDS011;32161;48.148;-1.554;2022-11-20T13:21:46;27.90;;;4.68;;
46463;SDS011;32161;48.148;-1.554;2022-11-20T13:24:23;28.05;;;4.47;;
46463;SDS011;32161;48.148;-1.554;2022-11-20T13:27:01;22.45;;;3.83;;
46463;SDS011;32161;48.148;-1.554;2022-11-20T13:29:31;24.27;;;3.28;;
46463;SDS011;32161;48.148;-1.554;2022-11-20T13:32:02;22.25;;;4.15;;
46463;SDS011;32161;48.148;-1.554;2022-11-20T13:34:32;28.52;;;4.55;;
46463;SDS011;32161;48.148;-1.554;2022-11-20T13:37:03;22.10;;;3.33;;
46463;SDS011;32161;48.148;-1.554;2022-11-20T13:39:31;25.30;;;3.53;;
46463;SDS011;32161;48.148;-1.554;2022-11-20T13:42:00;15.95;;;3.65;;
46463;SDS011;32161;48.148;-1.554;2022-11-20T13:44:47;23.25;;;4.25;;
46463;SDS011;32161;48.148;-1.554;2022-11-20T13:47:20;29.30;;;4.43;;
46463;SDS011;32161;48.148;-1.554;2022-11-20T13:49:49;24.88;;;3.65;;
46463;SDS011;32161;48.148;-1.554;2022-11-20T13:52:29;21.63;;;4.30;;
46463;SDS011;32161;48.148;-1.554;2022-11-20T13:55:12;22.13;;;3.65;;
46463;SDS011;32161;48.148;-1.554;2022-11-20T14:01:08;20.10;;;3.30;;
46463;SDS011;32161;48.148;-1.554;2022-11-20T14:03:40;22.55;;;4.72;;
46463;SDS011;32161;48.148;-1.554;2022-11-20T14:06:11;17.13;;;3.50;;
46463;SDS011;32161;48.148;-1.554;2022-11-20T14:08:50;14.70;;;3.58;;
46463;SDS011;32161;48.148;-1.554;2022-11-20T14:11:18;23.60;;;3.60;;
46463;SDS011;32161;48.148;-1.554;2022-11-20T14:13:53;20.85;;;3.63;;
46463;SDS011;32161;48.148;-1.554;2022-11-20T14:16:24;21.85;;;3.35;;
46463;SDS011;32161;48.148;-1.554;2022-11-20T14:18:54;21.67;;;3.87;;
46463;SDS011;32161;48.148;-1.554;2022-11-20T14:21:24;25.05;;;3.97;;
46463;SDS011;32161;48.148;-1.554;2022-11-20T14:24:04;20.50;;;3.90;;
46463;SDS011;32161;48.148;-1.554;2022-11-20T14:26:33;21.77;;;3.90;;
46463;SDS011;32161;48.148;-1.554;2022-11-20T14:29:01;24.77;;;4.78;;
46463;SDS011;32161;48.148;-1.554;2022-11-20T14:31:29;20.00;;;3.95;;
46463;SDS011;32161;48.148;-1.554;2022-11-20T14:33:57;20.48;;;3.90;;
46463;SDS011;32161;48.148;-1.554;2022-11-20T14:36:24;20.05;;;4.85;;
46463;SDS011;32161;48.148;-1.554;2022-11-20T14:38:53;14.77;;;4.18;;
46463;SDS011;32161;48.148;-1.554;2022-11-20T14:41:23;22.15;;;5.72;;
46463;SDS011;32161;48.148;-1.554;2022-11-20T14:43:52;23.70;;;3.90;;
46463;SDS011;32161;48.148;-1.554;2022-11-20T14:46:23;15.57;;;3.47;;
46463;SDS011;32161;48.148;-1.554;2022-11-20T14:48:51;20.45;;;4.07;;
46463;SDS011;32161;48.148;-1.554;2022-11-20T14:51:29;23.30;;;4.18;;
46463;SDS011;32161;48.148;-1.554;2022-11-20T14:54:09;15.40;;;3.55;;
46463;SDS011;32161;48.148;-1.554;2022-11-20T14:56:41;14.32;;;3.05;;
46463;SDS011;32161;48.148;-1.554;2022-11-20T14:59:22;19.02;;;3.78;;
46463;SDS011;32161;48.148;-1.554;2022-11-20T15:01:54;25.27;;;4.13;;
46463;SDS011;32161;48.148;-1.554;2022-11-20T15:04:24;13.70;;;3.00;;
46463;SDS011;32161;48.148;-1.554;2022-11-20T15:06:53;23.55;;;4.10;;
46463;SDS011;32161;48.148;-1.554;2022-11-20T15:09:23;18.60;;;2.80;;